Time;durP1;ratioP1;P1;durP2;ratioP2;P2;SDS_P1;SDS_P2;PMS_P1;PMS_P2;Temp;Humidity;BMP_temperature;BMP_pressure;BME280_temperature;BME280_humidity;BME280_pressure;Samples;Min_cycle;Max_cycle;Signal;HPM_P1;HPM_P2
2022/01/22 00:00:44;;;;;;;19.85;7.65;;;;;;;1.31;100.00;100272.00;5009212;28;20125;-70
2022/01/22 00:03:10;;;;;;;14.05;6.70;;;;;;;1.39;100.00;100275.00;5016538;28;20037;-70
2022/01/22 00:05:35;;;;;;;16.25;6.97;;;;;;;1.35;100.00;100273.50;5016103;28;20024;-70
2022/01/22 00:08:01;;;;;;;10.52;5.47;;;;;;;1.32;100.00;100273.72;5026512;28;20036;-70
2022/01/22 00:10:27;;;;;;;24.80;7.63;;;;;;;1.32;100.00;100271.03;5023881;28;20088;-70
2022/01/22 00:15:20;;;;;;;17.25;6.53;;;;;;;1.42;100.00;100272.09;5015304;28;20030;-70
2022/01/22 00:17:50;;;;;;;21.67;7.15;;;;;;;1.41;100.00;100267.72;5027848;28;20026;-70
2022/01/22 00:20:18;;;;;;;13.55;6.05;;;;;;;1.42;100.00;100266.75;5024659;28;20028;-70
2022/01/22 00:22:43;;;;;;;12.48;5.95;;;;;;;1.42;100.00;100269.44;5022502;28;20116;-70
2022/01/22 00:25:11;;;;;;;12.25;6.05;;;;;;;1.40;100.00;100274.00;5009661;28;20127;-70
2022/01/22 00:27:42;;;;;;;16.45;6.13;;;;;;;1.40;100.00;100271.34;5022758;28;20029;-70
2022/01/22 00:30:11;;;;;;;14.10;6.72;;;;;;;1.47;100.00;100258.44;5022113;28;20056;-70
2022/01/22 00:32:37;;;;;;;19.33;6.72;;;;;;;1.43;100.00;100255.13;5023013;28;20039;-70
2022/01/22 00:35:04;;;;;;;13.60;6.47;;;;;;;1.50;100.00;100264.41;5014006;28;20030;-70
2022/01/22 00:37:30;;;;;;;12.52;5.68;;;;;;;1.50;100.00;100253.72;5023323;28;20056;-70
2022/01/22 00:39:55;;;;;;;16.52;6.63;;;;;;;1.49;100.00;100260.03;5022793;28;20072;-70
2022/01/22 00:42:22;;;;;;;16.77;6.45;;;;;;;1.51;100.00;100255.44;5013108;28;20086;-70
2022/01/22 00:44:51;;;;;;;11.38;5.43;;;;;;;1.51;100.00;100258.09;5017715;28;20022;-70
2022/01/22 00:47:17;;;;;;;13.50;5.88;;;;;;;1.58;100.00;100257.69;5027069;28;20108;-70
2022/01/22 00:49:42;;;;;;;13.88;5.43;;;;;;;1.51;100.00;100251.91;5027139;28;20425;-70
2022/01/22 00:52:07;;;;;;;18.42;6.25;;;;;;;1.47;100.00;100250.44;5011441;28;20116;-70
2022/01/22 00:54:33;;;;;;;15.63;6.53;;;;;;;1.56;100.00;100248.91;5011402;28;20041;-70
2022/01/22 00:56:58;;;;;;;16.75;7.20;;;;;;;1.58;100.00;100247.00;5014384;28;20032;-70
2022/01/22 00:59:24;;;;;;;11.88;6.60;;;;;;;1.49;100.00;100241.38;5021174;28;20065;-70
2022/01/22 01:01:49;;;;;;;14.68;6.95;;;;;;;1.54;100.00;100244.53;5015279;28;20037;-70
2022/01/22 01:04:15;;;;;;;15.38;6.47;;;;;;;1.59;100.00;100249.53;5009290;28;20034;-70
2022/01/22 01:06:41;;;;;;;16.25;7.47;;;;;;;1.57;100.00;100255.94;5009832;28;20581;-70
2022/01/22 01:09:08;;;;;;;11.63;6.30;;;;;;;1.30;100.00;100200.97;5074107;23;20048;-70
2022/01/22 01:11:38;;;;;;;14.57;6.10;;;;;;;1.64;100.00;100258.06;5064387;28;20158;-69
2022/01/22 01:14:07;;;;;;;16.55;7.25;;;;;;;1.67;100.00;100259.66;5058753;28;22045;-70
2022/01/22 01:35:25;;;;;;;16.73;6.63;;;;;;;1.56;100.00;100230.25;5062018;28;20020;-71
2022/01/22 01:37:53;;;;;;;16.08;6.45;;;;;;;1.80;100.00;100257.81;5071668;28;20073;-71
2022/01/22 01:40:19;;;;;;;17.55;6.00;;;;;;;1.77;100.00;100250.03;5057506;28;22764;-71
2022/01/22 01:45:10;;;;;;;16.85;7.28;;;;;;;1.72;100.00;100250.34;5067049;28;20159;-71
2022/01/22 01:47:37;;;;;;;17.40;6.72;;;;;;;1.79;100.00;100261.44;5072916;28;20086;-71
2022/01/22 01:50:05;;;;;;;12.10;6.47;;;;;;;1.85;100.00;100254.81;5059658;28;20021;-70
2022/01/22 01:53:03;;;;;;;14.10;6.88;;;;;;;1.80;100.00;100268.47;5064940;28;20404;-70
2022/01/22 01:55:33;;;;;;;19.83;6.82;;;;;;;1.68;100.00;100256.91;5065197;28;20081;-71
2022/01/22 01:57:59;;;;;;;17.90;7.15;;;;;;;1.80;100.00;100272.97;5064341;28;20070;-71
2022/01/22 02:00:26;;;;;;;18.20;6.40;;;;;;;1.70;100.00;100273.66;5066253;28;20032;-70
2022/01/22 02:02:53;;;;;;;17.92;7.40;;;;;;;1.82;100.00;100279.91;5070365;28;20032;-70
2022/01/22 02:05:21;;;;;;;12.73;6.32;;;;;;;1.86;100.00;100276.06;5061136;28;20062;-71
2022/01/22 02:07:48;;;;;;;18.92;8.25;;;;;;;1.59;100.00;100249.53;5068237;28;20025;-72
2022/01/22 02:10:20;;;;;;;18.05;7.57;;;;;;;1.79;100.00;100272.13;5064414;28;20024;-70
2022/01/22 02:23:43;;;;;;;14.40;7.15;;;;;;;1.64;100.00;100239.41;5062800;28;20102;-70
2022/01/22 02:26:10;;;;;;;20.33;7.88;;;;;;;1.71;100.00;100256.66;5060229;28;20028;-71
2022/01/22 02:28:36;;;;;;;16.73;7.97;;;;;;;1.67;100.00;100243.66;5061076;28;20119;-73
2022/01/22 02:39:22;;;;;;;15.80;8.30;;;;;;;1.87;100.00;100252.91;5063165;28;20517;-71
2022/01/22 02:41:50;;;;;;;17.98;7.32;;;;;;;1.78;100.00;100221.53;5056872;28;20029;-71
2022/01/22 02:44:32;;;;;;;22.80;8.07;;;;;;;1.91;100.00;100244.56;5057464;28;20025;-71
2022/01/22 02:46:57;;;;;;;19.70;7.63;;;;;;;1.92;100.00;100246.25;5069226;28;20516;-70
2022/01/22 02:49:22;;;;;;;16.38;7.80;;;;;;;1.78;100.00;100211.69;5073140;28;20025;-70
2022/01/22 02:51:48;;;;;;;20.90;8.32;;;;;;;1.84;100.00;100235.28;5057698;28;20379;-70
2022/01/22 02:54:13;;;;;;;19.98;8.40;;;;;;;1.84;100.00;100242.44;5061794;28;20040;-70
2022/01/22 02:56:38;;;;;;;16.65;7.75;;;;;;;1.82;100.00;100245.22;5062066;28;20028;-70
2022/01/22 02:59:04;;;;;;;19.45;8.30;;;;;;;1.69;100.00;100205.22;5064287;28;20028;-70
2022/01/22 03:01:29;;;;;;;22.08;7.55;;;;;;;1.87;100.00;100243.06;5063905;28;20107;-70
2022/01/22 03:03:55;;;;;;;20.88;8.57;;;;;;;1.85;100.00;100244.13;5061199;28;20036;-70
2022/01/22 03:06:20;;;;;;;22.40;8.13;;;;;;;1.86;100.00;100241.38;5053562;28;20031;-70
2022/01/22 03:08:47;;;;;;;18.65;7.25;;;;;;;1.88;100.00;100234.09;5063875;28;20052;-71
2022/01/22 03:11:23;;;;;;;20.60;8.73;;;;;;;1.85;100.00;100230.78;5055023;28;20025;-70
2022/01/22 03:14:39;;;;;;;18.58;7.18;;;;;;;1.93;100.00;100244.44;5053897;28;20466;-71
2022/01/22 03:17:26;;;;;;;21.00;8.13;;;;;;;1.73;100.00;100211.22;5059493;28;20393;-71
2022/01/22 03:27:39;;;;;;;22.20;8.48;;;;;;;1.81;100.00;100224.84;5062774;28;20031;-70
2022/01/22 03:30:05;;;;;;;18.38;9.15;;;;;;;1.80;100.00;100236.47;5063332;28;20024;-70
2022/01/22 03:32:37;;;;;;;21.13;8.70;;;;;;;1.77;100.00;100219.84;5057745;28;20470;-70
2022/01/22 03:35:24;;;;;;;17.98;8.23;;;;;;;1.73;100.00;100211.22;5061353;28;20032;-70
2022/01/22 03:37:53;;;;;;;18.30;8.00;;;;;;;1.85;100.00;100226.31;5058389;28;20527;-70
2022/01/22 03:40:27;;;;;;;20.17;8.65;;;;;;;1.85;100.00;100218.31;5064042;28;20104;-70
2022/01/22 03:42:54;;;;;;;20.75;8.57;;;;;;;1.83;100.00;100225.56;5056151;28;20040;-70
2022/01/22 03:45:21;;;;;;;20.90;9.13;;;;;;;1.85;100.00;100218.31;5056722;28;20100;-70
2022/01/22 03:47:46;;;;;;;17.23;8.60;;;;;;;1.84;100.00;100216.59;5067094;28;20115;-70
2022/01/22 03:50:14;;;;;;;20.90;8.55;;;;;;;1.91;100.00;100220.53;5069476;28;20087;-70
2022/01/22 03:52:39;;;;;;;22.70;8.27;;;;;;;1.92;100.00;100222.22;5064446;28;20088;-70
2022/01/22 03:55:09;;;;;;;15.52;8.20;;;;;;;1.91;100.00;100225.00;5052876;28;20056;-70
2022/01/22 03:57:34;;;;;;;20.08;8.98;;;;;;;1.90;100.00;100231.31;5058534;28;20020;-70
2022/01/22 04:00:01;;;;;;;21.83;9.68;;;;;;;1.64;100.00;100186.03;5061734;28;20025;-70
2022/01/22 04:04:56;;;;;;;23.83;9.50;;;;;;;1.84;100.00;100221.09;5058981;28;20020;-70
2022/01/22 04:10:07;;;;;;;24.77;8.48;;;;;;;1.93;100.00;100221.25;5063794;28;20063;-70
2022/01/22 04:13:17;;;;;;;19.45;9.07;;;;;;;1.94;100.00;100219.47;5058490;28;20021;-71
2022/01/22 04:15:25;;;;;;;20.15;9.70;;;;;;;1.73;100.00;100180.03;5052340;28;20033;-71
2022/01/22 04:26:14;;;;;;;20.38;8.73;;;;;;;1.94;100.00;100214.97;5066486;28;20035;-70
2022/01/22 04:28:39;;;;;;;17.45;9.32;;;;;;;1.94;100.00;100217.63;5060862;28;20020;-71
2022/01/22 04:31:04;;;;;;;20.08;9.40;;;;;;;1.94;100.00;100217.63;5057834;28;20445;-71
2022/01/22 04:33:30;;;;;;;18.05;8.40;;;;;;;1.98;100.00;100219.09;5061690;28;20425;-71
2022/01/22 04:35:55;;;;;;;19.63;9.13;;;;;;;1.61;100.00;100166.75;5062425;28;20070;-70
2022/01/22 04:38:20;;;;;;;20.30;9.23;;;;;;;2.01;100.00;100230.53;5057317;28;20061;-70
2022/01/22 04:40:46;;;;;;;17.10;8.80;;;;;;;2.00;100.00;100226.16;5059976;28;20058;-71
2022/01/22 04:43:11;;;;;;;25.27;9.10;;;;;;;2.00;100.00;100231.50;5061145;28;20021;-71
2022/01/22 04:56:34;;;;;;;20.48;9.65;;;;;;;1.86;100.00;100214.69;5046499;28;20051;-70
2022/01/22 04:59:01;;;;;;;20.77;9.70;;;;;;;1.94;100.00;100230.13;5031292;28;20033;-70
2022/01/22 05:01:27;;;;;;;17.73;9.30;;;;;;;1.98;100.00;100231.59;5051216;28;20043;-70
2022/01/22 05:03:52;;;;;;;16.45;8.57;;;;;;;2.03;100.00;100232.09;5053045;28;20037;-70
2022/01/22 05:06:17;;;;;;;20.42;9.57;;;;;;;2.02;100.00;100229.53;5058188;28;20094;-70
2022/01/22 05:08:43;;;;;;;22.10;8.98;;;;;;;1.99;100.00;100235.97;5061155;28;20057;-70
2022/01/22 05:11:08;;;;;;;16.25;8.48;;;;;;;2.00;100.00;100232.34;5065211;28;20068;-70
2022/01/22 05:13:35;;;;;;;18.90;8.27;;;;;;;1.92;100.00;100222.22;5054731;28;20115;-70
2022/01/22 05:16:00;;;;;;;18.17;8.38;;;;;;;2.01;100.00;100233.19;5061837;28;20040;-70
2022/01/22 05:18:26;;;;;;;18.67;9.02;;;;;;;2.10;100.00;100238.72;5070715;28;20035;-70
2022/01/22 05:21:00;;;;;;;19.65;8.07;;;;;;;2.08;100.00;100237.97;5065974;28;20043;-80
2022/01/22 05:23:26;;;;;;;21.65;8.98;;;;;;;1.69;100.00;100181.22;5064062;28;20025;-70
2022/01/22 05:26:01;;;;;;;16.20;9.05;;;;;;;1.78;100.00;100177.00;5063400;28;20055;-72
2022/01/22 05:31:03;;;;;;;19.73;8.55;;;;;;;2.09;100.00;100249.47;5062216;28;20111;-71
2022/01/22 05:38:38;;;;;;;16.50;8.35;;;;;;;2.05;100.00;100243.53;5058783;28;20409;-71
2022/01/22 05:41:04;;;;;;;16.95;8.55;;;;;;;2.08;100.00;100259.31;5069570;28;20111;-71
2022/01/22 05:43:29;;;;;;;16.33;8.52;;;;;;;2.00;100.00;100247.50;5068250;28;20729;-71
2022/01/22 05:45:55;;;;;;;17.17;8.15;;;;;;;2.21;100.00;100272.63;5065761;28;20478;-73
2022/01/22 05:48:20;;;;;;;23.55;8.38;;;;;;;2.16;100.00;100272.09;5069730;28;20110;-72
2022/01/22 05:50:53;;;;;;;17.08;8.45;;;;;;;2.19;100.00;100263.84;5071310;28;20052;-73
2022/01/22 06:01:06;;;;;;;18.90;7.65;;;;;;;2.07;100.00;100246.06;5069311;28;20504;-76
2022/01/22 06:03:32;;;;;;;17.13;7.55;;;;;;;2.21;100.00;100263.75;5071588;28;20012;-74
2022/01/22 06:05:57;;;;;;;19.98;8.35;;;;;;;2.18;100.00;100267.50;5064258;28;20700;-74
2022/01/22 06:08:29;;;;;;;14.23;8.00;;;;;;;2.12;100.00;100263.47;5068415;28;20028;-75
2022/01/22 06:10:56;;;;;;;22.00;8.18;;;;;;;2.10;100.00;100248.53;5067258;28;20445;-74
2022/01/22 06:13:28;;;;;;;18.38;8.02;;;;;;;2.09;100.00;100246.81;5067834;28;20028;-74
2022/01/22 06:15:54;;;;;;;18.33;8.00;;;;;;;2.07;100.00;100256.75;5071782;28;20035;-76
2022/01/22 06:18:19;;;;;;;21.55;9.30;;;;;;;2.07;100.00;100241.59;5071806;28;20413;-75
2022/01/22 06:20:44;;;;;;;16.52;8.10;;;;;;;2.04;100.00;100256.97;5068241;28;20478;-75
2022/01/22 06:23:10;;;;;;;17.08;8.52;;;;;;;2.02;100.00;100264.25;5067330;28;20032;-76
2022/01/22 06:25:35;;;;;;;18.75;8.32;;;;;;;2.03;100.00;100263.28;5072544;28;20029;-75
2022/01/22 06:28:01;;;;;;;21.15;8.48;;;;;;;1.91;100.00;100239.22;5071539;28;20016;-75
2022/01/22 06:30:27;;;;;;;19.45;8.73;;;;;;;2.05;100.00;100264.03;5073035;28;20024;-74
2022/01/22 06:32:52;;;;;;;21.20;8.65;;;;;;;1.92;100.00;100246.25;5066304;28;20126;-73
2022/01/22 06:35:17;;;;;;;21.35;8.60;;;;;;;2.10;100.00;100276.09;5068114;28;20102;-76
2022/01/22 06:37:43;;;;;;;14.85;9.05;;;;;;;2.07;100.00;100259.41;5073224;28;20044;-76
2022/01/22 06:42:34;;;;;;;17.48;7.90;;;;;;;2.31;100.00;100300.34;5054623;28;20082;-73
2022/01/22 06:45:02;;;;;;;17.35;8.32;;;;;;;2.31;99.74;100299.50;5062009;28;20104;-72
2022/01/22 06:47:29;;;;;;;19.60;8.50;;;;;;;2.23;100.00;100297.41;5065767;28;20021;-72
2022/01/22 06:49:55;;;;;;;18.63;8.40;;;;;;;1.96;99.43;100257.53;5068807;28;20301;-75
2022/01/22 06:52:20;;;;;;;25.75;9.98;;;;;;;2.27;100.00;100303.34;5058673;28;20104;-76
2022/01/22 06:54:46;;;;;;;24.73;10.55;;;;;;;2.04;100.00;100284.53;5074345;28;20036;-75
2022/01/22 06:57:12;;;;;;;24.50;11.00;;;;;;;1.94;100.00;100265.69;5066273;28;21681;-75
2022/01/22 06:59:38;;;;;;;20.08;10.07;;;;;;;2.20;100.00;100308.28;5063742;28;20029;-75
2022/01/22 07:02:04;;;;;;;23.42;9.45;;;;;;;2.05;100.00;100301.41;5069252;28;20051;-76
2022/01/22 07:04:31;;;;;;;20.48;8.75;;;;;;;1.90;100.00;100266.84;5068806;28;20433;-76
2022/01/22 07:06:57;;;;;;;19.02;8.75;;;;;;;2.00;100.00;100283.06;5078844;28;20029;-76
2022/01/22 07:09:23;;;;;;;24.38;8.82;;;;;;;1.99;100.00;100278.66;5062333;28;20025;-76
2022/01/22 07:11:48;;;;;;;17.20;8.60;;;;;;;1.92;100.00;100259.59;5064307;28;20502;-78
2022/01/22 07:14:14;;;;;;;19.75;7.85;;;;;;;2.01;100.00;100271.41;5058817;28;20040;-76
2022/01/22 07:16:40;;;;;;;17.05;8.93;;;;;;;2.07;100.00;100280.78;5059586;28;20448;-76
2022/01/22 07:19:05;;;;;;;18.10;8.23;;;;;;;2.23;100.00;100302.72;5065314;28;20059;-78
2022/01/22 07:21:31;;;;;;;21.80;9.95;;;;;;;2.27;100.00;100309.53;5064630;28;20028;-76
2022/01/22 07:26:26;;;;;;;27.83;10.63;;;;;;;2.24;100.00;100308.91;5066462;28;20021;-76
2022/01/22 07:28:52;;;;;;;19.73;9.73;;;;;;;2.25;100.00;100316.78;5060593;28;20025;-76
2022/01/22 07:31:20;;;;;;;25.48;10.73;;;;;;;2.02;100.00;100274.91;5064582;28;20020;-77
2022/01/22 07:33:46;;;;;;;18.53;9.20;;;;;;;2.06;100.00;100298.63;5068771;28;20043;-75
2022/01/22 07:36:11;;;;;;;22.95;9.80;;;;;;;2.09;100.00;100286.84;5062776;28;20267;-75
2022/01/22 07:38:38;;;;;;;24.90;10.30;;;;;;;2.29;100.00;100318.28;5069045;28;20504;-76
2022/01/22 07:41:04;;;;;;;25.27;11.00;;;;;;;2.26;100.00;100310.50;5067169;28;20021;-78
2022/01/22 07:43:30;;;;;;;24.13;10.80;;;;;;;2.17;100.00;100287.13;5068372;28;20020;-77
2022/01/22 07:45:55;;;;;;;20.67;10.20;;;;;;;1.96;100.00;100262.88;5057434;28;20082;-77
2022/01/22 07:48:20;;;;;;;23.13;11.43;;;;;;;2.04;100.00;100273.84;5065372;28;20032;-77
2022/01/22 07:50:45;;;;;;;21.70;9.40;;;;;;;2.09;100.00;100274.34;5068671;28;20031;-76
2022/01/22 07:53:11;;;;;;;15.68;9.20;;;;;;;2.14;100.00;100287.38;5076945;28;20073;-76
2022/01/22 07:55:36;;;;;;;19.55;9.07;;;;;;;2.05;100.00;100272.06;5065792;28;20120;-76
2022/01/22 07:58:01;;;;;;;15.40;9.07;;;;;;;2.07;100.00;100270.09;5063249;28;20025;-76
2022/01/22 08:00:27;;;;;;;19.20;10.10;;;;;;;2.23;100.00;100291.19;5061788;28;21219;-77
2022/01/22 08:02:52;;;;;;;21.50;9.85;;;;;;;2.15;100.00;100273.09;5063981;28;20389;-77
2022/01/22 08:05:17;;;;;;;21.67;9.88;;;;;;;2.34;100.00;100304.59;5066544;28;20383;-75
2022/01/22 08:07:44;;;;;;;23.60;10.43;;;;;;;2.26;100.00;100297.16;5067467;28;20115;-72
2022/01/22 08:10:11;;;;;;;20.85;10.32;;;;;;;2.21;100.00;100309.16;5059594;28;20203;-68
2022/01/22 08:12:38;;;;;;;17.38;9.20;;;;;;;2.34;100.00;100321.47;5056452;28;20629;-72
2022/01/22 08:15:08;;;;;;;24.90;9.20;;;;;;;2.32;100.00;100317.22;5060400;28;20032;-72
2022/01/22 08:17:34;;;;;;;19.10;8.93;;;;;;;2.46;100.00;100321.53;5061469;28;20035;-73
2022/01/22 08:20:00;;;;;;;18.35;8.40;;;;;;;2.49;99.98;100329.31;5058334;28;20036;-72
2022/01/22 08:22:25;;;;;;;20.65;8.10;;;;;;;2.48;99.15;100330.28;5058485;28;20020;-73
2022/01/22 08:24:53;;;;;;;20.23;8.38;;;;;;;2.42;98.91;100323.59;5060033;28;20035;-73
2022/01/22 08:29:56;;;;;;;20.67;8.55;;;;;;;2.41;98.99;100319.19;5066727;28;20020;-77
2022/01/22 08:32:34;;;;;;;20.40;9.10;;;;;;;2.59;99.17;100341.00;5071851;28;20025;-75
2022/01/22 08:37:44;;;;;;;15.15;8.07;;;;;;;2.50;99.19;100347.06;5065462;28;20032;-74
2022/01/22 08:40:10;;;;;;;20.50;8.52;;;;;;;2.55;99.43;100350.25;5051968;28;20033;-77
2022/01/22 08:42:36;;;;;;;17.30;8.23;;;;;;;2.37;99.27;100321.25;5060679;28;20028;-72
2022/01/22 08:45:03;;;;;;;21.30;8.48;;;;;;;2.60;98.54;100337.41;5071324;28;20030;-72
2022/01/22 08:47:29;;;;;;;17.33;7.80;;;;;;;2.60;97.81;100342.75;5065943;28;20029;-72
2022/01/22 08:49:54;;;;;;;19.35;8.82;;;;;;;2.58;97.10;100326.81;5057989;28;20104;-72
2022/01/22 08:52:24;;;;;;;16.95;8.20;;;;;;;2.52;96.57;100329.09;5057807;28;20017;-72
2022/01/22 08:54:49;;;;;;;19.38;7.82;;;;;;;2.72;96.38;100355.16;5064340;28;20117;-78
2022/01/22 08:57:15;;;;;;;19.17;7.88;;;;;;;2.63;96.70;100337.16;5063076;28;20112;-77
2022/01/22 08:59:41;;;;;;;17.13;9.15;;;;;;;2.76;96.63;100332.59;5055743;28;20029;-74
2022/01/22 09:02:07;;;;;;;17.17;8.35;;;;;;;2.59;96.82;100330.31;5067166;28;20028;-80
2022/01/22 09:04:33;;;;;;;19.70;7.68;;;;;;;2.49;97.20;100311.47;5070450;28;20066;-72
2022/01/22 09:07:00;;;;;;;18.95;8.20;;;;;;;2.93;96.71;100354.53;5061260;28;20029;-71
2022/01/22 09:09:26;;;;;;;21.10;7.97;;;;;;;2.87;96.43;100365.69;5059203;28;20032;-75
2022/01/22 09:11:53;;;;;;;16.73;8.02;;;;;;;2.91;95.79;100378.72;5070787;28;20028;-74
2022/01/22 09:14:18;;;;;;;18.02;7.50;;;;;;;2.82;96.25;100366.03;5070527;28;20055;-71
2022/01/22 09:16:46;;;;;;;17.23;7.65;;;;;;;2.82;96.25;100363.34;5061600;28;20059;-76
2022/01/22 09:19:13;;;;;;;15.70;7.45;;;;;;;2.72;96.95;100352.47;5061608;28;20119;-77
2022/01/22 09:21:42;;;;;;;17.88;7.55;;;;;;;2.99;97.68;100372.78;5063197;28;20025;-74
2022/01/22 09:24:08;;;;;;;17.25;8.77;;;;;;;2.83;97.96;100344.53;5065910;28;20047;-75
2022/01/22 09:26:34;;;;;;;20.90;8.35;;;;;;;3.10;96.69;100372.81;5059814;28;20486;-75
2022/01/22 09:29:00;;;;;;;17.98;8.77;;;;;;;2.97;97.40;100346.16;5062257;28;20035;-77
2022/01/22 09:31:27;;;;;;;18.05;7.60;;;;;;;3.11;96.60;100385.19;5061868;28;20074;-70
2022/01/22 09:33:58;;;;;;;18.38;8.77;;;;;;;3.07;96.54;100387.28;5073862;28;20031;-70
2022/01/22 09:36:24;;;;;;;14.38;7.82;;;;;;;3.05;96.10;100381.19;5065543;28;20025;-71
2022/01/22 09:38:50;;;;;;;24.45;8.55;;;;;;;3.13;95.90;100393.13;5066896;28;20020;-71
2022/01/22 09:41:17;;;;;;;18.45;8.55;;;;;;;2.90;96.34;100378.81;5062136;28;20032;-70
2022/01/22 09:43:42;;;;;;;15.98;7.88;;;;;;;2.90;97.09;100366.28;5060494;28;20462;-70
2022/01/22 09:46:08;;;;;;;15.55;8.45;;;;;;;3.12;97.47;100392.28;5053967;28;20021;-70
2022/01/22 09:48:33;;;;;;;18.27;8.60;;;;;;;3.14;96.71;100386.78;5062926;28;20024;-70
2022/01/22 09:50:59;;;;;;;21.13;9.30;;;;;;;2.82;96.93;100345.50;5066386;28;20389;-71
2022/01/22 09:53:24;;;;;;;20.83;9.27;;;;;;;3.21;96.58;100406.75;5064879;28;20021;-70
2022/01/22 09:55:51;;;;;;;19.23;9.18;;;;;;;3.14;96.75;100390.31;5068676;28;20028;-70
2022/01/22 09:58:16;;;;;;;15.55;8.63;;;;;;;3.21;96.50;100415.63;5069008;28;20479;-70
2022/01/22 10:00:42;;;;;;;19.63;8.95;;;;;;;3.28;96.84;100418.69;5065023;28;20037;-71
2022/01/22 10:03:19;;;;;;;17.65;7.88;;;;;;;3.19;97.43;100420.22;5069804;28;20028;-71
2022/01/22 10:05:45;;;;;;;19.40;9.50;;;;;;;3.13;97.33;100410.00;5068041;28;20054;-71
2022/01/22 10:08:28;;;;;;;21.33;9.80;;;;;;;3.14;98.01;100406.34;5074776;28;20064;-71
2022/01/22 10:10:54;;;;;;;19.55;9.55;;;;;;;3.05;98.21;100407.06;5070291;28;20025;-71
2022/01/22 10:13:51;;;;;;;19.35;8.75;;;;;;;3.03;98.50;100412.53;5060868;28;20025;-72
2022/01/22 10:16:29;;;;;;;17.58;8.35;;;;;;;3.06;98.84;100408.75;5059203;28;20040;-71
2022/01/22 10:19:16;;;;;;;20.45;8.18;;;;;;;3.01;98.29;100405.59;5067776;28;20386;-70
2022/01/22 10:21:57;;;;;;;14.93;7.80;;;;;;;3.19;98.03;100406.88;5064056;28;20137;-71
2022/01/22 10:24:26;;;;;;;18.83;8.18;;;;;;;3.21;97.78;100412.94;5068061;28;20024;-70
2022/01/22 10:27:22;;;;;;;19.27;8.60;;;;;;;3.40;97.38;100399.03;5064923;28;20024;-71
2022/01/22 10:29:55;;;;;;;19.90;8.73;;;;;;;3.29;96.79;100365.06;5059553;28;20544;-72
2022/01/22 10:32:27;;;;;;;17.45;8.23;;;;;;;3.34;96.38;100396.81;5061144;28;20139;-72
2022/01/22 10:35:09;;;;;;;14.43;8.23;;;;;;;3.37;96.92;100396.59;5059933;28;20025;-71
2022/01/22 10:37:35;;;;;;;16.20;7.68;;;;;;;3.47;97.02;100407.44;5060379;28;20034;-71
2022/01/22 10:40:20;;;;;;;17.48;8.18;;;;;;;3.46;96.94;100392.38;5061570;28;20021;-72
2022/01/22 10:42:46;;;;;;;16.90;6.90;;;;;;;3.45;95.79;100382.63;5057835;28;20029;-72
2022/01/22 10:45:19;;;;;;;23.92;8.63;;;;;;;3.38;95.84;100359.97;5061628;28;20123;-72
2022/01/22 10:47:45;;;;;;;17.75;7.80;;;;;;;3.54;95.54;100360.50;5060036;28;20818;-73
2022/01/22 10:50:22;;;;;;;16.33;7.28;;;;;;;3.24;96.20;100316.44;5060050;28;20023;-71
2022/01/22 10:52:55;;;;;;;24.40;8.00;;;;;;;3.40;96.37;100364.25;5062510;28;20024;-72
2022/01/22 10:55:21;;;;;;;14.80;7.68;;;;;;;3.46;95.69;100336.19;5060108;28;20825;-72
2022/01/22 10:58:09;;;;;;;20.17;8.18;;;;;;;3.56;94.80;100365.72;5061922;28;20029;-71
2022/01/22 11:00:37;;;;;;;11.70;7.20;;;;;;;3.57;94.64;100351.38;5059646;28;20031;-72
2022/01/22 11:03:22;;;;;;;15.07;8.23;;;;;;;3.71;93.93;100368.03;5058616;28;20135;-72
2022/01/22 11:05:48;;;;;;;18.98;7.20;;;;;;;3.59;94.11;100346.75;5061501;28;20048;-72
2022/01/22 11:08:14;;;;;;;16.20;7.38;;;;;;;3.66;91.86;100370.22;5065948;28;20036;-72
2022/01/22 11:10:41;;;;;;;13.82;6.15;;;;;;;3.42;93.03;100340.91;5054715;28;20017;-71
2022/01/22 11:13:06;;;;;;;16.88;7.80;;;;;;;3.74;93.46;100373.16;5059154;28;20513;-71
2022/01/22 11:15:34;;;;;;;18.40;6.32;;;;;;;3.57;94.14;100360.25;5056144;28;20024;-71
2022/01/22 11:18:00;;;;;;;13.07;6.90;;;;;;;3.40;94.07;100342.00;5057020;28;20039;-72
2022/01/22 11:20:26;;;;;;;18.70;8.13;;;;;;;3.72;94.43;100366.22;5061216;28;20024;-72
2022/01/22 11:22:53;;;;;;;13.40;6.80;;;;;;;3.55;94.44;100348.81;5061699;28;20032;-72
2022/01/22 11:25:20;;;;;;;16.00;6.63;;;;;;;3.47;93.77;100348.56;5054626;28;20028;-72
2022/01/22 11:27:46;;;;;;;16.67;6.25;;;;;;;3.68;91.67;100362.94;5060788;28;20490;-72
2022/01/22 11:30:15;;;;;;;16.80;7.18;;;;;;;3.84;92.15;100377.78;5061299;28;20028;-73
2022/01/22 11:32:43;;;;;;;14.70;5.82;;;;;;;3.49;92.29;100317.22;5066170;28;20614;-72
2022/01/22 11:35:09;;;;;;;15.32;6.70;;;;;;;3.46;93.27;100339.69;5065222;28;20124;-73
2022/01/22 11:37:45;;;;;;;10.57;5.50;;;;;;;3.71;92.78;100373.41;5057840;28;20052;-72
2022/01/22 11:40:11;;;;;;;12.55;6.90;;;;;;;3.80;92.13;100368.28;5053221;28;20028;-72
2022/01/22 11:42:59;;;;;;;13.02;6.90;;;;;;;3.93;92.49;100371.72;5061021;28;22579;-72
2022/01/22 11:45:35;;;;;;;15.63;5.15;;;;;;;4.00;91.00;100369.41;5066430;28;20069;-71
2022/01/22 11:48:23;;;;;;;12.07;6.13;;;;;;;3.94;91.08;100370.75;5055595;28;20032;-72
2022/01/22 11:50:50;;;;;;;15.77;6.10;;;;;;;3.79;90.94;100342.50;5054302;28;20768;-72
2022/01/22 11:53:32;;;;;;;13.63;5.82;;;;;;;3.94;90.85;100352.84;5056401;28;20107;-72
2022/01/22 11:56:23;;;;;;;11.65;6.13;;;;;;;3.87;91.15;100340.06;5055161;28;20051;-73
2022/01/22 11:59:02;;;;;;;15.05;6.28;;;;;;;4.10;90.79;100368.53;5063058;28;20032;-72
2022/01/22 12:01:43;;;;;;;13.55;6.40;;;;;;;4.01;92.54;100363.03;5064335;28;20033;-72
2022/01/22 12:04:14;;;;;;;16.80;6.10;;;;;;;3.96;90.88;100352.72;5063754;28;20039;-72
2022/01/22 12:07:02;;;;;;;13.43;6.68;;;;;;;4.09;91.04;100348.09;5057232;28;20032;-72
2022/01/22 12:15:26;;;;;;;11.73;4.50;;;;;;;4.33;91.35;100355.13;5060884;28;20028;-74
2022/01/22 12:18:07;;;;;;;10.25;5.57;;;;;;;4.26;90.85;100351.22;5062639;28;20028;-72
2022/01/22 12:23:11;;;;;;;10.55;4.90;;;;;;;4.16;90.77;100351.09;5069357;28;20106;-73
2022/01/22 12:25:39;;;;;;;11.70;5.82;;;;;;;4.23;91.33;100364.88;5055062;28;20423;-72
2022/01/22 12:28:09;;;;;;;10.43;5.32;;;;;;;4.24;92.02;100358.53;5060785;28;20029;-72
2022/01/22 12:30:44;;;;;;;12.00;4.72;;;;;;;4.23;91.76;100351.47;5063079;28;20020;-73
2022/01/22 12:33:15;;;;;;;13.43;5.93;;;;;;;4.04;92.67;100344.94;5062595;28;20105;-71
2022/01/22 12:35:44;;;;;;;11.90;5.55;;;;;;;4.17;92.83;100369.75;5058065;28;20103;-70
2022/01/22 12:38:25;;;;;;;14.55;6.35;;;;;;;4.13;92.87;100370.09;5059295;28;20028;-73
2022/01/22 12:40:56;;;;;;;12.25;5.82;;;;;;;4.03;92.43;100356.59;5061155;28;20025;-73
2022/01/22 12:43:29;;;;;;;12.85;5.60;;;;;;;4.05;92.19;100380.59;5063155;28;20033;-73
2022/01/22 12:45:58;;;;;;;10.50;5.88;;;;;;;3.93;92.96;100352.97;5065356;28;20055;-73
2022/01/22 12:48:28;;;;;;;14.05;5.85;;;;;;;3.77;93.59;100339.09;5060718;28;20479;-73
2022/01/22 12:51:02;;;;;;;17.35;6.32;;;;;;;3.93;93.45;100377.09;5058231;28;20045;-73
2022/01/22 12:53:28;;;;;;;12.80;5.88;;;;;;;3.94;93.96;100379.63;5055215;28;20063;-73
2022/01/22 12:58:20;;;;;;;14.57;6.70;;;;;;;3.78;93.65;100354.19;5061674;28;20502;-73
2022/01/22 13:00:45;;;;;;;12.05;6.47;;;;;;;3.90;94.25;100355.88;5059244;28;20040;-73
2022/01/22 13:03:11;;;;;;;13.40;6.25;;;;;;;3.83;94.35;100346.66;5058185;28;20040;-73
2022/01/22 13:05:36;;;;;;;22.05;6.97;;;;;;;3.83;94.22;100346.66;5070973;28;20032;-74
2022/01/22 13:08:06;;;;;;;18.13;6.57;;;;;;;3.85;94.54;100342.88;5072829;28;20109;-73
2022/01/22 13:10:43;;;;;;;16.98;6.75;;;;;;;3.85;94.62;100340.22;5057206;28;20032;-73
2022/01/22 13:13:10;;;;;;;18.38;6.00;;;;;;;3.76;93.83;100326.69;5071279;28;20119;-73
2022/01/22 13:15:36;;;;;;;13.93;6.65;;;;;;;3.73;93.74;100325.97;5061652;28;20028;-73
2022/01/22 13:18:03;;;;;;;18.20;7.10;;;;;;;3.83;94.33;100343.97;5062089;28;20047;-74